sensor_id;sensor_type;location;lat;lon;timestamp;pressure;altitude;pressure_sealevel;temperature;humidity
23176;BME280;19910;42.652;23.332;2023-02-14T00:00:32;96043.41;;;2.43;73.83
23176;BME280;19910;42.652;23.332;2023-02-14T00:02:58;96044.88;;;2.50;73.96
23176;BME280;19910;42.652;23.332;2023-02-14T00:05:25;96048.19;;;2.41;73.90
23176;BME280;19910;42.652;23.332;2023-02-14T00:07:52;96046.81;;;2.38;74.18
23176;BME280;19910;42.652;23.332;2023-02-14T00:10:19;96054.88;;;2.27;74.56
23176;BME280;19910;42.652;23.332;2023-02-14T00:12:47;96045.25;;;2.26;74.65
23176;BME280;19910;42.652;23.332;2023-02-14T00:15:14;96046.88;;;2.27;74.68
23176;BME280;19910;42.652;23.332;2023-02-14T00:17:49;96050.94;;;2.29;74.76
23176;BME280;19910;42.652;23.332;2023-02-14T00:20:17;96045.59;;;2.29;74.75
23176;BME280;19910;42.652;23.332;2023-02-14T00:22:43;96047.03;;;2.37;74.54
23176;BME280;19910;42.652;23.332;2023-02-14T00:25:10;96052.38;;;2.37;74.68
23176;BME280;19910;42.652;23.332;2023-02-14T00:27:37;96053.88;;;2.44;74.41
23176;BME280;19910;42.652;23.332;2023-02-14T00:30:07;96045.31;;;2.59;74.09
23176;BME280;19910;42.652;23.332;2023-02-14T00:32:36;96044.78;;;2.62;73.81
23176;BME280;19910;42.652;23.332;2023-02-14T00:35:04;96039.53;;;2.67;73.96
23176;BME280;19910;42.652;23.332;2023-02-14T00:37:30;96045.47;;;2.69;74.08
23176;BME280;19910;42.652;23.332;2023-02-14T00:39:57;96039.63;;;2.72;74.05
23176;BME280;19910;42.652;23.332;2023-02-14T00:42:24;96043.84;;;2.68;74.14
23176;BME280;19910;42.652;23.332;2023-02-14T00:44:51;96037.44;;;2.69;74.12
23176;BME280;19910;42.652;23.332;2023-02-14T00:47:19;96037.44;;;2.69;74.00
23176;BME280;19910;42.652;23.332;2023-02-14T00:49:45;96032.16;;;2.74;73.72
23176;BME280;19910;42.652;23.332;2023-02-14T00:52:12;96027.31;;;2.71;74.04
23176;BME280;19910;42.652;23.332;2023-02-14T00:54:39;96032.09;;;2.69;74.09
23176;BME280;19910;42.652;23.332;2023-02-14T00:57:06;96032.09;;;2.69;73.90
23176;BME280;19910;42.652;23.332;2023-02-14T00:59:33;96014.31;;;2.63;73.74
23176;BME280;19910;42.652;23.332;2023-02-14T01:01:59;96018.72;;;2.69;73.51
23176;BME280;19910;42.652;23.332;2023-02-14T01:04:28;96021.72;;;2.73;73.52
23176;BME280;19910;42.652;23.332;2023-02-14T01:06:54;96017.16;;;2.73;73.32
23176;BME280;19910;42.652;23.332;2023-02-14T01:09:21;96021.94;;;2.71;74.08
23176;BME280;19910;42.652;23.332;2023-02-14T01:11:48;96016.03;;;2.69;73.86
23176;BME280;19910;42.652;23.332;2023-02-14T01:14:15;96024.06;;;2.69;73.76
23176;BME280;19910;42.652;23.332;2023-02-14T01:16:41;96018.03;;;2.62;73.90
23176;BME280;19910;42.652;23.332;2023-02-14T01:19:08;96010.59;;;2.64;73.64
23176;BME280;19910;42.652;23.332;2023-02-14T01:21:36;96016.28;;;2.68;73.73
23176;BME280;19910;42.652;23.332;2023-02-14T01:24:05;96007.84;;;2.59;74.09
23176;BME280;19910;42.652;23.332;2023-02-14T01:26:33;96006.72;;;2.55;73.64
23176;BME280;19910;42.652;23.332;2023-02-14T01:29:00;95994.38;;;2.54;74.09
23176;BME280;19910;42.652;23.332;2023-02-14T01:31:29;95992.75;;;2.53;74.12
23176;BME280;19910;42.652;23.332;2023-02-14T01:33:56;95985.69;;;2.47;74.58
23176;BME280;19910;42.652;23.332;2023-02-14T01:36:25;95997.06;;;2.54;74.26
23176;BME280;19910;42.652;23.332;2023-02-14T01:38:54;96006.72;;;2.55;74.22
23176;BME280;19910;42.652;23.332;2023-02-14T01:41:22;95980.44;;;2.52;74.09
23176;BME280;19910;42.652;23.332;2023-02-14T01:43:54;95980.44;;;2.52;73.72
23176;BME280;19910;42.652;23.332;2023-02-14T01:46:23;95971.38;;;2.53;74.36
23176;BME280;19910;42.652;23.332;2023-02-14T01:48:51;95967.50;;;2.44;74.24
23176;BME280;19910;42.652;23.332;2023-02-14T01:51:19;95963.66;;;2.40;74.29
23176;BME280;19910;42.652;23.332;2023-02-14T01:53:48;95956.28;;;2.47;73.84
23176;BME280;19910;42.652;23.332;2023-02-14T01:56:20;95963.75;;;2.45;74.17
23176;BME280;19910;42.652;23.332;2023-02-14T01:58:50;95963.19;;;2.43;73.92
23176;BME280;19910;42.652;23.332;2023-02-14T02:01:19;95965.94;;;2.48;73.82
23176;BME280;19910;42.652;23.332;2023-02-14T02:03:48;95973.47;;;2.51;74.03
23176;BME280;19910;42.652;23.332;2023-02-14T02:06:21;95964.97;;;2.54;73.48
23176;BME280;19910;42.652;23.332;2023-02-14T02:08:54;95973.00;;;2.54;73.45
23176;BME280;19910;42.652;23.332;2023-02-14T02:11:26;95964.31;;;2.47;74.03
23176;BME280;19910;42.652;23.332;2023-02-14T02:13:53;95979.81;;;2.45;74.04
23176;BME280;19910;42.652;23.332;2023-02-14T02:16:28;95966.34;;;2.40;73.76
23176;BME280;19910;42.652;23.332;2023-02-14T02:19:19;95976.00;;;2.41;74.38
23176;BME280;19910;42.652;23.332;2023-02-14T02:22:16;95974.94;;;2.42;74.32
23176;BME280;19910;42.652;23.332;2023-02-14T02:24:57;95968.34;;;2.33;74.47
23176;BME280;19910;42.652;23.332;2023-02-14T02:27:43;95958.31;;;2.40;74.67
23176;BME280;19910;42.652;23.332;2023-02-14T02:30:43;95951.78;;;2.31;74.43
23176;BME280;19910;42.652;23.332;2023-02-14T02:33:47;95945.63;;;2.30;74.39
23176;BME280;19910;42.652;23.332;2023-02-14T02:36:41;95937.16;;;2.38;74.38
23176;BME280;19910;42.652;23.332;2023-02-14T02:39:20;95932.31;;;2.35;74.34
23176;BME280;19910;42.652;23.332;2023-02-14T02:41:59;95929.38;;;2.37;74.10
23176;BME280;19910;42.652;23.332;2023-02-14T02:44:37;95917.41;;;2.23;74.57
23176;BME280;19910;42.652;23.332;2023-02-14T02:47:15;95923.22;;;2.20;74.55
23176;BME280;19910;42.652;23.332;2023-02-14T02:49:49;95931.34;;;2.25;74.63
23176;BME280;19910;42.652;23.332;2023-02-14T02:52:42;95919.03;;;2.24;74.48
23176;BME280;19910;42.652;23.332;2023-02-14T02:55:35;95918.97;;;2.19;74.45
23176;BME280;19910;42.652;23.332;2023-02-14T02:58:19;95926.31;;;2.11;74.85
23176;BME280;19910;42.652;23.332;2023-02-14T03:00:49;95936.06;;;2.18;74.89
23176;BME280;19910;42.652;23.332;2023-02-14T03:03:18;95925.50;;;2.11;74.62
23176;BME280;19910;42.652;23.332;2023-02-14T03:06:03;95929.09;;;2.17;74.89
23176;BME280;19910;42.652;23.332;2023-02-14T03:08:31;95935.25;;;2.17;74.51
23176;BME280;19910;42.652;23.332;2023-02-14T03:10:59;95937.97;;;2.22;74.78
23176;BME280;19910;42.652;23.332;2023-02-14T03:13:46;95929.34;;;2.32;74.58
23176;BME280;19910;42.652;23.332;2023-02-14T03:16:29;95914.97;;;2.38;74.09
23176;BME280;19910;42.652;23.332;2023-02-14T03:19:20;95924.72;;;2.44;73.81
23176;BME280;19910;42.652;23.332;2023-02-14T03:21:55;95923.47;;;2.52;73.59
23176;BME280;19910;42.652;23.332;2023-02-14T03:24:28;95917.25;;;2.46;73.48
23176;BME280;19910;42.652;23.332;2023-02-14T03:27:03;95915.13;;;2.48;73.65
23176;BME280;19910;42.652;23.332;2023-02-14T03:29:40;95910.09;;;2.35;73.53
23176;BME280;19910;42.652;23.332;2023-02-14T03:32:13;95904.13;;;2.28;74.14
23176;BME280;19910;42.652;23.332;2023-02-14T03:34:50;95897.16;;;2.27;74.33
23176;BME280;19910;42.652;23.332;2023-02-14T03:37:22;95898.13;;;2.21;74.27
23176;BME280;19910;42.652;23.332;2023-02-14T03:39:58;95898.63;;;2.18;74.12
23176;BME280;19910;42.652;23.332;2023-02-14T03:42:31;95901.84;;;2.20;74.08
23176;BME280;19910;42.652;23.332;2023-02-14T03:45:00;95901.84;;;2.20;74.30
23176;BME280;19910;42.652;23.332;2023-02-14T03:47:32;95900.97;;;2.14;74.42
23176;BME280;19910;42.652;23.332;2023-02-14T03:50:04;95899.44;;;2.01;74.72
23176;BME280;19910;42.652;23.332;2023-02-14T03:52:33;95899.25;;;2.08;74.72
23176;BME280;19910;42.652;23.332;2023-02-14T03:55:04;95890.13;;;2.04;74.76
23176;BME280;19910;42.652;23.332;2023-02-14T03:57:36;95891.66;;;2.00;74.79
23176;BME280;19910;42.652;23.332;2023-02-14T04:00:07;95891.00;;;1.93;74.54
23176;BME280;19910;42.652;23.332;2023-02-14T04:02:37;95878.84;;;1.85;74.90
23176;BME280;19910;42.652;23.332;2023-02-14T04:05:11;95872.56;;;1.91;75.21
23176;BME280;19910;42.652;23.332;2023-02-14T04:07:47;95871.97;;;1.89;74.91
23176;BME280;19910;42.652;23.332;2023-02-14T04:10:16;95871.66;;;1.86;75.28
23176;BME280;19910;42.652;23.332;2023-02-14T04:12:43;95878.03;;;1.85;74.86
23176;BME280;19910;42.652;23.332;2023-02-14T04:15:11;95881.06;;;1.88;75.22
23176;BME280;19910;42.652;23.332;2023-02-14T04:17:38;95884.03;;;1.92;74.63
23176;BME280;19910;42.652;23.332;2023-02-14T04:20:22;95881.13;;;1.93;74.72
23176;BME280;19910;42.652;23.332;2023-02-14T04:22:49;95884.28;;;2.07;73.90
23176;BME280;19910;42.652;23.332;2023-02-14T04:25:18;95881.94;;;2.10;73.72
23176;BME280;19910;42.652;23.332;2023-02-14T04:27:46;95889.13;;;2.10;73.92
23176;BME280;19910;42.652;23.332;2023-02-14T04:30:14;95881.69;;;2.12;73.98
23176;BME280;19910;42.652;23.332;2023-02-14T04:32:42;95880.97;;;2.17;73.51
23176;BME280;19910;42.652;23.332;2023-02-14T04:35:09;95876.75;;;2.21;73.47
23176;BME280;19910;42.652;23.332;2023-02-14T04:37:36;95868.81;;;2.26;73.35
23176;BME280;19910;42.652;23.332;2023-02-14T04:40:04;95879.50;;;2.26;72.95
23176;BME280;19910;42.652;23.332;2023-02-14T04:42:33;95878.88;;;2.19;73.04
23176;BME280;19910;42.652;23.332;2023-02-14T04:45:00;95870.28;;;2.17;73.39
23176;BME280;19910;42.652;23.332;2023-02-14T04:47:26;95848.72;;;2.06;73.43
23176;BME280;19910;42.652;23.332;2023-02-14T04:49:53;95863.31;;;1.99;73.98
23176;BME280;19910;42.652;23.332;2023-02-14T04:52:20;95857.31;;;2.08;73.72
23176;BME280;19910;42.652;23.332;2023-02-14T04:54:47;95849.78;;;2.05;73.40
23176;BME280;19910;42.652;23.332;2023-02-14T04:57:14;95851.16;;;2.08;73.63
23176;BME280;19910;42.652;23.332;2023-02-14T04:59:42;95843.47;;;2.11;73.51
23176;BME280;19910;42.652;23.332;2023-02-14T05:02:09;95841.75;;;2.05;73.12
23176;BME280;19910;42.652;23.332;2023-02-14T05:04:35;95857.00;;;2.05;73.44
23176;BME280;19910;42.652;23.332;2023-02-14T05:07:02;95856.25;;;2.09;73.04
23176;BME280;19910;42.652;23.332;2023-02-14T05:09:29;95863.31;;;2.16;73.47
23176;BME280;19910;42.652;23.332;2023-02-14T05:11:59;95849.06;;;2.10;73.06
23176;BME280;19910;42.652;23.332;2023-02-14T05:14:26;95858.44;;;2.12;73.20
23176;BME280;19910;42.652;23.332;2023-02-14T05:16:54;95856.97;;;2.22;73.18
23176;BME280;19910;42.652;23.332;2023-02-14T05:19:21;95861.28;;;2.23;72.79
23176;BME280;19910;42.652;23.332;2023-02-14T05:21:49;95849.03;;;2.27;72.37
23176;BME280;19910;42.652;23.332;2023-02-14T05:24:16;95855.59;;;2.36;72.16
23176;BME280;19910;42.652;23.332;2023-02-14T05:26:43;95853.38;;;2.33;72.17
23176;BME280;19910;42.652;23.332;2023-02-14T05:29:10;95848.81;;;2.28;72.29
23176;BME280;19910;42.652;23.332;2023-02-14T05:31:37;95851.72;;;2.27;72.32
23176;BME280;19910;42.652;23.332;2023-02-14T05:34:05;95857.06;;;2.27;72.42
23176;BME280;19910;42.652;23.332;2023-02-14T05:36:31;95852.75;;;2.26;72.55
23176;BME280;19910;42.652;23.332;2023-02-14T05:38:58;95852.28;;;2.29;72.54
23176;BME280;19910;42.652;23.332;2023-02-14T05:41:25;95852.28;;;2.29;72.19
23176;BME280;19910;42.652;23.332;2023-02-14T05:43:52;95831.38;;;2.26;72.48
23176;BME280;19910;42.652;23.332;2023-02-14T05:46:18;95830.91;;;2.29;72.55
23176;BME280;19910;42.652;23.332;2023-02-14T05:48:45;95830.72;;;2.35;72.31
23176;BME280;19910;42.652;23.332;2023-02-14T05:51:13;95841.72;;;2.39;72.12
23176;BME280;19910;42.652;23.332;2023-02-14T05:53:40;95828.84;;;2.36;72.25
23176;BME280;19910;42.652;23.332;2023-02-14T05:56:07;95843.69;;;2.43;71.79
23176;BME280;19910;42.652;23.332;2023-02-14T05:58:33;95847.91;;;2.61;71.96
23176;BME280;19910;42.652;23.332;2023-02-14T06:01:00;95847.97;;;2.66;71.54
23176;BME280;19910;42.652;23.332;2023-02-14T06:03:27;95840.28;;;2.92;70.60
23176;BME280;19910;42.652;23.332;2023-02-14T06:05:54;95833.97;;;3.51;68.67
23176;BME280;19910;42.652;23.332;2023-02-14T06:08:22;95846.06;;;3.86;68.05
23176;BME280;19910;42.652;23.332;2023-02-14T06:10:49;95851.59;;;4.06;66.52
23176;BME280;19910;42.652;23.332;2023-02-14T06:13:15;95842.41;;;3.97;66.29
23176;BME280;19910;42.652;23.332;2023-02-14T06:15:42;95844.06;;;4.03;66.22
23176;BME280;19910;42.652;23.332;2023-02-14T06:18:09;95857.84;;;3.85;66.74
23176;BME280;19910;42.652;23.332;2023-02-14T06:20:36;95862.25;;;3.96;66.92
23176;BME280;19910;42.652;23.332;2023-02-14T06:23:03;95852.75;;;3.83;67.20
23176;BME280;19910;42.652;23.332;2023-02-14T06:25:31;95854.22;;;3.69;67.30
23176;BME280;19910;42.652;23.332;2023-02-14T06:27:58;95854.50;;;3.68;67.58
23176;BME280;19910;42.652;23.332;2023-02-14T06:30:25;95852.97;;;3.77;67.38
23176;BME280;19910;42.652;23.332;2023-02-14T06:32:52;95856.50;;;3.82;67.14
23176;BME280;19910;42.652;23.332;2023-02-14T06:35:19;95855.59;;;3.72;67.80
23176;BME280;19910;42.652;23.332;2023-02-14T06:37:48;95856.00;;;3.58;68.18
23176;BME280;19910;42.652;23.332;2023-02-14T06:40:15;95861.75;;;3.45;69.09
23176;BME280;19910;42.652;23.332;2023-02-14T06:42:45;95848.81;;;3.37;68.96
23176;BME280;19910;42.652;23.332;2023-02-14T06:45:12;95845.19;;;3.48;68.94
23176;BME280;19910;42.652;23.332;2023-02-14T06:47:38;95850.53;;;3.48;68.82
23176;BME280;19910;42.652;23.332;2023-02-14T06:50:06;95843.38;;;3.54;68.68
23176;BME280;19910;42.652;23.332;2023-02-14T06:52:36;95842.03;;;3.56;68.92
23176;BME280;19910;42.652;23.332;2023-02-14T06:55:03;95835.19;;;3.66;68.56
23176;BME280;19910;42.652;23.332;2023-02-14T06:57:29;95843.16;;;3.61;68.76
23176;BME280;19910;42.652;23.332;2023-02-14T06:59:58;95834.56;;;3.58;68.94
23176;BME280;19910;42.652;23.332;2023-02-14T07:02:24;95827.09;;;3.61;68.65
23176;BME280;19910;42.652;23.332;2023-02-14T07:04:51;95829.72;;;3.55;68.98
23176;BME280;19910;42.652;23.332;2023-02-14T07:07:18;95841.28;;;3.61;69.26
23176;BME280;19910;42.652;23.332;2023-02-14T07:13:03;95802.38;;;3.53;69.46
23176;BME280;19910;42.652;23.332;2023-02-14T07:15:32;95821.38;;;3.52;69.93
23176;BME280;19910;42.652;23.332;2023-02-14T07:17:59;95827.81;;;3.51;70.06
23176;BME280;19910;42.652;23.332;2023-02-14T07:20:25;95832.94;;;3.57;70.24
23176;BME280;19910;42.652;23.332;2023-02-14T07:22:52;95838.31;;;3.57;70.46
23176;BME280;19910;42.652;23.332;2023-02-14T07:25:20;95833.34;;;3.44;70.97
23176;BME280;19910;42.652;23.332;2023-02-14T07:27:47;95839.34;;;3.51;71.13
23176;BME280;19910;42.652;23.332;2023-02-14T07:30:14;95837.72;;;3.50;71.23
23176;BME280;19910;42.652;23.332;2023-02-14T07:32:42;95844.03;;;3.39;72.04
23176;BME280;19910;42.652;23.332;2023-02-14T07:35:09;95839.91;;;3.53;71.49
23176;BME280;19910;42.652;23.332;2023-02-14T07:37:36;95839.66;;;3.55;71.55
23176;BME280;19910;42.652;23.332;2023-02-14T07:40:05;95835.59;;;3.52;71.85
23176;BME280;19910;42.652;23.332;2023-02-14T07:42:32;95840.81;;;3.42;72.23
23176;BME280;19910;42.652;23.332;2023-02-14T07:45:00;95843.25;;;3.44;72.82
23176;BME280;19910;42.652;23.332;2023-02-14T07:47:31;95841.22;;;3.29;73.39
23176;BME280;19910;42.652;23.332;2023-02-14T07:49:59;95848.19;;;3.30;73.98
23176;BME280;19910;42.652;23.332;2023-02-14T07:52:26;95848.19;;;3.30;74.69
23176;BME280;19910;42.652;23.332;2023-02-14T07:54:53;95852.97;;;3.23;75.21
23176;BME280;19910;42.652;23.332;2023-02-14T07:57:19;95855.25;;;3.14;75.36
23176;BME280;19910;42.652;23.332;2023-02-14T07:59:46;95874.13;;;3.03;76.53
23176;BME280;19910;42.652;23.332;2023-02-14T08:02:13;95867.47;;;3.05;76.87
23176;BME280;19910;42.652;23.332;2023-02-14T08:04:40;95873.03;;;2.99;77.30
23176;BME280;19910;42.652;23.332;2023-02-14T08:07:08;95865.03;;;3.04;77.54
23176;BME280;19910;42.652;23.332;2023-02-14T08:09:34;95871.66;;;2.96;77.87
23176;BME280;19910;42.652;23.332;2023-02-14T08:12:01;95879.84;;;2.90;78.50
23176;BME280;19910;42.652;23.332;2023-02-14T08:14:45;95875.03;;;2.87;78.83
23176;BME280;19910;42.652;23.332;2023-02-14T08:17:12;95874.50;;;2.90;78.64
23176;BME280;19910;42.652;23.332;2023-02-14T08:19:39;95872.50;;;3.02;78.60
23176;BME280;19910;42.652;23.332;2023-02-14T08:22:07;95879.44;;;2.98;78.69
23176;BME280;19910;42.652;23.332;2023-02-14T08:24:34;95881.59;;;3.01;78.43
23176;BME280;19910;42.652;23.332;2023-02-14T08:27:01;95880.00;;;3.00;78.28
23176;BME280;19910;42.652;23.332;2023-02-14T08:29:28;95889.69;;;3.06;78.17
23176;BME280;19910;42.652;23.332;2023-02-14T08:31:55;95897.47;;;3.07;77.70
23176;BME280;19910;42.652;23.332;2023-02-14T08:34:24;95882.31;;;3.13;77.61
23176;BME280;19910;42.652;23.332;2023-02-14T08:36:51;95872.66;;;3.12;77.56
23176;BME280;19910;42.652;23.332;2023-02-14T08:39:19;95872.75;;;3.22;77.52
23176;BME280;19910;42.652;23.332;2023-02-14T08:41:46;95858.56;;;3.21;77.52
23176;BME280;19910;42.652;23.332;2023-02-14T08:44:12;95871.63;;;3.18;77.69
23176;BME280;19910;42.652;23.332;2023-02-14T08:46:40;95885.94;;;3.29;77.27
23176;BME280;19910;42.652;23.332;2023-02-14T08:49:08;95888.34;;;3.25;78.03
23176;BME280;19910;42.652;23.332;2023-02-14T08:51:35;95887.75;;;3.01;78.85
23176;BME280;19910;42.652;23.332;2023-02-14T08:54:02;95893.47;;;2.88;80.38
23176;BME280;19910;42.652;23.332;2023-02-14T08:56:30;95880.69;;;2.73;80.70
23176;BME280;19910;42.652;23.332;2023-02-14T08:58:57;95883.47;;;2.78;80.68
23176;BME280;19910;42.652;23.332;2023-02-14T09:01:24;95880.38;;;2.87;80.30
23176;BME280;19910;42.652;23.332;2023-02-14T09:03:51;95886.25;;;2.89;80.41
23176;BME280;19910;42.652;23.332;2023-02-14T09:06:18;95877.75;;;2.92;80.18
23176;BME280;19910;42.652;23.332;2023-02-14T09:08:45;95880.00;;;3.00;80.56
23176;BME280;19910;42.652;23.332;2023-02-14T09:11:13;95873.16;;;3.09;80.20
23176;BME280;19910;42.652;23.332;2023-02-14T09:13:44;95879.06;;;3.11;79.79
23176;BME280;19910;42.652;23.332;2023-02-14T09:16:13;95874.66;;;3.00;80.40
23176;BME280;19910;42.652;23.332;2023-02-14T09:18:41;95857.94;;;2.93;80.39
23176;BME280;19910;42.652;23.332;2023-02-14T09:21:10;95860.81;;;3.08;80.09
23176;BME280;19910;42.652;23.332;2023-02-14T09:23:37;95863.25;;;3.09;79.17
23176;BME280;19910;42.652;23.332;2023-02-14T09:26:06;95860.81;;;3.08;79.77
23176;BME280;19910;42.652;23.332;2023-02-14T09:28:34;95862.75;;;3.12;79.57
23176;BME280;19910;42.652;23.332;2023-02-14T09:31:09;95871.69;;;3.01;79.55
23176;BME280;19910;42.652;23.332;2023-02-14T09:33:36;95863.97;;;3.05;79.81
23176;BME280;19910;42.652;23.332;2023-02-14T09:36:03;95861.13;;;3.11;79.37
23176;BME280;19910;42.652;23.332;2023-02-14T09:38:39;95860.88;;;3.13;78.63
23176;BME280;19910;42.652;23.332;2023-02-14T09:41:06;95866.59;;;3.21;78.36
23176;BME280;19910;42.652;23.332;2023-02-14T09:43:38;95864.97;;;3.20;78.37
23176;BME280;19910;42.652;23.332;2023-02-14T09:46:13;95865.06;;;3.31;78.06
23176;BME280;19910;42.652;23.332;2023-02-14T09:48:43;95854.25;;;3.20;78.30
23176;BME280;19910;42.652;23.332;2023-02-14T09:51:15;95851.75;;;3.36;77.73
23176;BME280;19910;42.652;23.332;2023-02-14T09:53:46;95843.38;;;3.81;81.79
23176;BME280;19910;42.652;23.332;2023-02-14T09:56:19;95848.06;;;4.38;79.81
23176;BME280;19910;42.652;23.332;2023-02-14T09:58:52;95848.50;;;4.19;77.00
23176;BME280;19910;42.652;23.332;2023-02-14T10:01:25;95843.97;;;3.61;75.53
23176;BME280;19910;42.652;23.332;2023-02-14T10:04:19;95842.97;;;3.40;76.31
23176;BME280;19910;42.652;23.332;2023-02-14T10:06:52;95846.19;;;3.42;76.14
23176;BME280;19910;42.652;23.332;2023-02-14T10:09:41;95840.94;;;3.52;75.85
23176;BME280;19910;42.652;23.332;2023-02-14T10:12:15;95832.13;;;3.57;75.36
23176;BME280;19910;42.652;23.332;2023-02-14T10:14:46;95837.38;;;3.74;75.21
23176;BME280;19910;42.652;23.332;2023-02-14T10:17:19;95838.13;;;3.64;75.03
23176;BME280;19910;42.652;23.332;2023-02-14T10:19:51;95818.41;;;3.48;75.26
23176;BME280;19910;42.652;23.332;2023-02-14T10:22:22;95835.06;;;3.55;75.35
23176;BME280;19910;42.652;23.332;2023-02-14T10:24:54;95823.97;;;3.69;75.08
23176;BME280;19910;42.652;23.332;2023-02-14T10:27:29;95823.44;;;3.72;74.47
23176;BME280;19910;42.652;23.332;2023-02-14T10:29:57;95812.06;;;3.60;74.18
23176;BME280;19910;42.652;23.332;2023-02-14T10:32:29;95809.38;;;3.60;73.92
23176;BME280;19910;42.652;23.332;2023-02-14T10:35:04;95817.94;;;3.56;74.70
23176;BME280;19910;42.652;23.332;2023-02-14T10:37:46;95814.16;;;3.52;75.14
23176;BME280;19910;42.652;23.332;2023-02-14T10:40:34;95806.78;;;3.38;75.13
23176;BME280;19910;42.652;23.332;2023-02-14T10:43:14;95819.28;;;3.27;75.14
23176;BME280;19910;42.652;23.332;2023-02-14T10:45:51;95816.19;;;3.40;74.84
23176;BME280;19910;42.652;23.332;2023-02-14T10:48:29;95820.13;;;3.33;74.86
23176;BME280;19910;42.652;23.332;2023-02-14T10:51:09;95825.69;;;3.26;75.21
23176;BME280;19910;42.652;23.332;2023-02-14T10:53:43;95821.97;;;3.32;74.52
23176;BME280;19910;42.652;23.332;2023-02-14T10:56:18;95830.47;;;3.24;75.03
23176;BME280;19910;42.652;23.332;2023-02-14T10:58:47;95812.25;;;3.21;75.40
23176;BME280;19910;42.652;23.332;2023-02-14T11:01:17;95808.00;;;3.25;75.52
23176;BME280;19910;42.652;23.332;2023-02-14T11:03:51;95819.31;;;3.32;75.45
23176;BME280;19910;42.652;23.332;2023-02-14T11:06:18;95809.38;;;3.06;75.98
23176;BME280;19910;42.652;23.332;2023-02-14T11:08:45;95821.16;;;3.05;76.46
23176;BME280;19910;42.652;23.332;2023-02-14T11:11:16;95815.16;;;3.19;75.95
23176;BME280;19910;42.652;23.332;2023-02-14T11:13:44;95803.72;;;3.24;75.41
23176;BME280;19910;42.652;23.332;2023-02-14T11:16:22;95810.31;;;3.43;75.61
23176;BME280;19910;42.652;23.332;2023-02-14T11:19:07;95809.06;;;3.51;74.59
23176;BME280;19910;42.652;23.332;2023-02-14T11:21:39;95810.31;;;3.43;74.42
23176;BME280;19910;42.652;23.332;2023-02-14T11:24:16;95809.25;;;3.44;74.34
23176;BME280;19910;42.652;23.332;2023-02-14T11:26:45;95810.88;;;3.45;74.19
23176;BME280;19910;42.652;23.332;2023-02-14T11:29:15;95800.13;;;3.40;74.12
23176;BME280;19910;42.652;23.332;2023-02-14T11:31:44;95797.47;;;3.45;74.30
23176;BME280;19910;42.652;23.332;2023-02-14T11:34:31;95793.25;;;3.49;73.69
23176;BME280;19910;42.652;23.332;2023-02-14T11:37:01;95789.69;;;3.44;73.60
23176;BME280;19910;42.652;23.332;2023-02-14T11:39:33;95789.53;;;3.55;72.90
23176;BME280;19910;42.652;23.332;2023-02-14T11:42:02;95784.09;;;3.45;72.71
23176;BME280;19910;42.652;23.332;2023-02-14T11:44:31;95782.94;;;3.36;72.75
23176;BME280;19910;42.652;23.332;2023-02-14T11:47:16;95781.41;;;3.45;72.34
23176;BME280;19910;42.652;23.332;2023-02-14T11:49:55;95777.75;;;3.56;71.96
23176;BME280;19910;42.652;23.332;2023-02-14T11:52:28;95764.91;;;3.58;71.51
23176;BME280;19910;42.652;23.332;2023-02-14T11:54:56;95771.31;;;3.52;71.21
23176;BME280;19910;42.652;23.332;2023-02-14T11:57:25;95766.53;;;3.60;71.66
23176;BME280;19910;42.652;23.332;2023-02-14T11:59:54;95771.31;;;3.57;70.70
23176;BME280;19910;42.652;23.332;2023-02-14T12:02:28;95759.78;;;3.52;71.51
23176;BME280;19910;42.652;23.332;2023-02-14T12:05:02;95755.63;;;3.66;71.25
23176;BME280;19910;42.652;23.332;2023-02-14T12:07:33;95751.81;;;3.62;70.73
23176;BME280;19910;42.652;23.332;2023-02-14T12:10:20;95751.88;;;3.72;70.54
23176;BME280;19910;42.652;23.332;2023-02-14T12:12:55;95743.03;;;3.72;70.76
23176;BME280;19910;42.652;23.332;2023-02-14T12:15:34;95730.72;;;3.71;70.58
23176;BME280;19910;42.652;23.332;2023-02-14T12:18:28;95745.97;;;3.65;70.75
23176;BME280;19910;42.652;23.332;2023-02-14T12:21:06;95734.53;;;3.80;70.63
23176;BME280;19910;42.652;23.332;2023-02-14T12:23:42;95739.66;;;3.86;70.32
23176;BME280;19910;42.652;23.332;2023-02-14T12:26:17;95745.31;;;3.90;70.17
23176;BME280;19910;42.652;23.332;2023-02-14T12:28:56;95732.25;;;3.99;69.90
23176;BME280;19910;42.652;23.332;2023-02-14T12:31:26;95734.78;;;4.20;69.72
23176;BME280;19910;42.652;23.332;2023-02-14T12:33:54;95736.50;;;4.37;68.97
23176;BME280;19910;42.652;23.332;2023-02-14T12:36:34;95734.72;;;4.10;69.48
23176;BME280;19910;42.652;23.332;2023-02-14T12:39:09;95726.75;;;4.20;70.05
23176;BME280;19910;42.652;23.332;2023-02-14T12:41:51;95722.97;;;4.16;69.87
23176;BME280;19910;42.652;23.332;2023-02-14T12:44:32;95725.59;;;4.11;69.62
23176;BME280;19910;42.652;23.332;2023-02-14T12:47:15;95741.69;;;4.11;69.81
23176;BME280;19910;42.652;23.332;2023-02-14T12:50:13;95714.31;;;4.04;70.00
23176;BME280;19910;42.652;23.332;2023-02-14T12:53:06;95725.34;;;4.08;69.89
23176;BME280;19910;42.652;23.332;2023-02-14T12:55:45;95722.78;;;4.33;69.87
23176;BME280;19910;42.652;23.332;2023-02-14T12:58:28;95722.25;;;4.31;69.55
23176;BME280;19910;42.652;23.332;2023-02-14T13:01:12;95727.88;;;4.29;69.77
23176;BME280;19910;42.652;23.332;2023-02-14T13:06:40;95720.91;;;4.34;69.73
23176;BME280;19910;42.652;23.332;2023-02-14T13:09:25;95730.44;;;4.09;70.53
23176;BME280;19910;42.652;23.332;2023-02-14T13:12:05;95721.34;;;4.15;70.61
23176;BME280;19910;42.652;23.332;2023-02-14T13:14:51;95720.84;;;4.18;70.67
23176;BME280;19910;42.652;23.332;2023-02-14T13:17:28;95711.44;;;4.16;70.88
23176;BME280;19910;42.652;23.332;2023-02-14T13:20:05;95713.06;;;4.17;70.88
23176;BME280;19910;42.652;23.332;2023-02-14T13:22:39;95713.00;;;4.07;71.54
23176;BME280;19910;42.652;23.332;2023-02-14T13:25:22;95707.47;;;4.23;71.87
23176;BME280;19910;42.652;23.332;2023-02-14T13:27:56;95708.66;;;3.96;71.81